createdAt,value
2017-08-26T00:00:08.066Z,99.90
2017-08-26T00:02:41.179Z,99.90
2017-08-26T00:05:08.722Z,99.90
2017-08-26T00:07:36.259Z,99.90
2017-08-26T00:10:03.847Z,99.90
2017-08-26T00:12:31.379Z,99.90
2017-08-26T00:14:58.927Z,99.90
2017-08-26T00:17:26.467Z,99.90
2017-08-26T00:19:54.023Z,99.90
2017-08-26T00:22:21.556Z,99.90
2017-08-26T00:24:49.131Z,99.90
2017-08-26T00:27:16.654Z,99.90
2017-08-26T00:29:44.220Z,99.90
2017-08-26T00:32:11.773Z,99.90
2017-08-26T00:34:39.314Z,99.90
2017-08-26T00:37:06.857Z,99.90
2017-08-26T00:39:34.515Z,99.90
2017-08-26T00:42:02.058Z,99.90
2017-08-26T00:44:29.591Z,99.90
2017-08-26T00:46:57.152Z,99.90
2017-08-26T00:49:24.695Z,99.90
2017-08-26T00:51:52.260Z,99.90
2017-08-26T00:54:19.804Z,99.90
2017-08-26T00:56:47.345Z,99.90
2017-08-26T00:59:14.883Z,99.90
2017-08-26T01:01:42.440Z,99.90
2017-08-26T01:04:09.981Z,99.90
2017-08-26T01:06:37.539Z,99.90
2017-08-26T01:09:05.071Z,99.90
2017-08-26T01:11:32.636Z,99.90
2017-08-26T01:14:00.177Z,99.90
2017-08-26T01:16:27.761Z,99.90
2017-08-26T01:18:55.292Z,99.90
2017-08-26T01:21:22.822Z,99.90
2017-08-26T01:23:50.367Z,99.90
2017-08-26T01:26:17.894Z,99.90
2017-08-26T01:28:45.461Z,99.90
2017-08-26T01:31:13.000Z,99.90
2017-08-26T01:33:40.553Z,99.90
2017-08-26T01:36:08.096Z,99.90
2017-08-26T01:38:35.656Z,99.90
2017-08-26T01:41:03.185Z,99.90
2017-08-26T01:43:30.745Z,99.90
2017-08-26T01:45:58.273Z,99.90
2017-08-26T01:48:25.824Z,99.90
2017-08-26T01:50:53.368Z,99.90
2017-08-26T01:53:20.915Z,99.90
2017-08-26T01:55:49.217Z,99.90
2017-08-26T01:58:16.782Z,99.90
2017-08-26T02:00:44.310Z,99.90
2017-08-26T02:03:11.871Z,99.90
2017-08-26T02:05:40.262Z,99.90
2017-08-26T02:08:07.824Z,99.90
2017-08-26T02:10:35.350Z,99.90
2017-08-26T02:13:02.895Z,99.90
2017-08-26T02:15:30.440Z,99.90
2017-08-26T02:17:58.016Z,99.90
2017-08-26T02:20:25.544Z,99.90
2017-08-26T02:22:53.070Z,99.90
2017-08-26T02:25:20.627Z,99.90
2017-08-26T02:27:48.172Z,99.90
2017-08-26T02:30:15.736Z,99.90
2017-08-26T02:32:43.276Z,99.90
2017-08-26T02:35:10.818Z,99.90
2017-08-26T02:37:38.358Z,99.90
2017-08-26T02:40:05.902Z,99.90
2017-08-26T02:42:33.444Z,99.90
2017-08-26T02:45:01.011Z,99.90
2017-08-26T02:47:28.542Z,99.90
2017-08-26T02:49:56.093Z,99.90
2017-08-26T02:52:23.618Z,99.90
2017-08-26T02:54:51.174Z,99.90
2017-08-26T02:57:18.697Z,99.90
2017-08-26T02:59:46.252Z,99.90
2017-08-26T03:02:13.796Z,99.90
2017-08-26T03:04:41.480Z,99.90
2017-08-26T03:07:09.792Z,99.90
2017-08-26T03:09:37.349Z,99.90
2017-08-26T03:12:04.897Z,99.90
2017-08-26T03:14:32.457Z,99.90
2017-08-26T03:16:59.986Z,99.90
2017-08-26T03:19:27.544Z,99.90
2017-08-26T03:21:55.091Z,99.90
2017-08-26T03:24:22.659Z,99.90
2017-08-26T03:26:50.199Z,99.90
2017-08-26T03:29:17.748Z,99.90
2017-08-26T03:31:46.041Z,99.90
2017-08-26T03:34:13.590Z,99.90
2017-08-26T03:36:41.123Z,99.90
2017-08-26T03:39:08.690Z,99.90
2017-08-26T03:41:36.213Z,99.90
2017-08-26T03:44:03.756Z,99.90
2017-08-26T03:46:31.311Z,99.90
2017-08-26T03:48:58.837Z,99.90
2017-08-26T03:51:27.156Z,99.90
2017-08-26T03:53:54.691Z,99.90
2017-08-26T03:56:22.246Z,99.90
2017-08-26T03:58:49.793Z,99.90
2017-08-26T04:01:17.344Z,99.90
2017-08-26T04:03:44.872Z,99.90
2017-08-26T04:06:13.200Z,99.90
2017-08-26T04:08:40.730Z,99.90
2017-08-26T04:11:08.282Z,99.90
2017-08-26T04:13:36.588Z,99.90
2017-08-26T04:16:04.139Z,99.90
2017-08-26T04:18:31.681Z,99.90
2017-08-26T04:20:59.999Z,99.90
2017-08-26T04:23:27.540Z,99.90
2017-08-26T04:25:55.087Z,99.90
2017-08-26T04:28:22.629Z,99.90
2017-08-26T04:30:50.187Z,99.90
2017-08-26T04:33:17.724Z,99.90
2017-08-26T04:35:45.308Z,99.90
2017-08-26T04:38:12.852Z,99.90
2017-08-26T04:40:40.383Z,99.90
2017-08-26T04:43:07.939Z,99.90
2017-08-26T04:45:35.476Z,99.90
2017-08-26T04:48:03.023Z,99.90
2017-08-26T04:50:30.561Z,99.90
2017-08-26T04:52:58.114Z,99.90
2017-08-26T04:55:25.652Z,99.90
2017-08-26T04:57:53.200Z,99.90
2017-08-26T05:00:20.744Z,99.90
2017-08-26T05:02:48.291Z,99.90
2017-08-26T05:05:15.828Z,99.90
2017-08-26T05:07:43.390Z,99.90
2017-08-26T05:10:10.923Z,99.90
2017-08-26T05:12:38.473Z,99.90
2017-08-26T05:15:06.013Z,99.90
2017-08-26T05:17:33.565Z,99.90
2017-08-26T05:20:01.100Z,99.90
2017-08-26T05:22:29.435Z,99.90
2017-08-26T05:24:56.953Z,99.90
2017-08-26T05:27:24.479Z,99.90
2017-08-26T05:29:52.038Z,99.90
2017-08-26T05:32:19.584Z,99.90
2017-08-26T05:34:47.129Z,99.90
2017-08-26T05:37:14.663Z,99.90
2017-08-26T05:39:42.206Z,99.90
2017-08-26T05:42:09.736Z,99.90
2017-08-26T05:44:37.278Z,99.90
2017-08-26T05:47:04.809Z,99.90
2017-08-26T05:49:32.351Z,99.90
2017-08-26T05:51:59.884Z,99.90
2017-08-26T05:54:27.429Z,99.90
2017-08-26T05:56:54.948Z,99.90
2017-08-26T05:59:22.486Z,99.90
2017-08-26T06:01:50.007Z,99.90
2017-08-26T06:04:17.562Z,99.90
2017-08-26T06:06:45.097Z,99.90
2017-08-26T06:09:12.650Z,99.90
2017-08-26T06:11:40.177Z,99.90
2017-08-26T06:14:07.734Z,99.90
2017-08-26T06:16:35.268Z,99.90
2017-08-26T06:19:02.797Z,99.90
2017-08-26T06:21:30.348Z,99.90
2017-08-26T06:23:57.871Z,99.90
2017-08-26T06:26:25.428Z,99.90
2017-08-26T06:28:52.956Z,99.90
2017-08-26T06:31:20.500Z,99.90
2017-08-26T06:33:48.026Z,99.90
2017-08-26T06:36:15.571Z,99.90
2017-08-26T06:38:43.100Z,99.90
2017-08-26T06:41:10.639Z,99.90
2017-08-26T06:43:38.163Z,99.90
2017-08-26T06:46:05.710Z,99.90
2017-08-26T06:48:33.244Z,99.90
2017-08-26T06:51:00.792Z,99.90
2017-08-26T06:53:28.313Z,99.90
2017-08-26T06:55:56.197Z,98.00
2017-08-26T06:58:23.736Z,96.10
2017-08-26T07:00:51.272Z,96.20
2017-08-26T07:03:19.582Z,94.90
2017-08-26T07:05:47.119Z,94.80
2017-08-26T07:08:14.661Z,94.20
2017-08-26T07:10:42.197Z,97.70
2017-08-26T07:13:09.751Z,99.90
2017-08-26T07:15:37.279Z,99.90
2017-08-26T07:18:04.836Z,99.90
2017-08-26T07:20:32.366Z,99.90
2017-08-26T07:22:59.923Z,99.90
2017-08-26T07:25:27.447Z,99.90
2017-08-26T07:27:54.994Z,99.90
2017-08-26T07:30:22.532Z,99.90
2017-08-26T07:32:50.089Z,99.90
2017-08-26T07:35:17.632Z,98.50
2017-08-26T07:37:45.188Z,97.30
2017-08-26T07:40:12.710Z,96.80
2017-08-26T07:42:40.262Z,97.70
2017-08-26T07:45:07.796Z,93.50
2017-08-26T07:47:35.334Z,93.80
2017-08-26T07:50:03.650Z,95.80
2017-08-26T07:52:31.188Z,95.90
2017-08-26T07:54:58.724Z,94.70
2017-08-26T07:57:26.274Z,93.10
2017-08-26T07:59:53.818Z,92.70
2017-08-26T08:02:21.365Z,92.50
2017-08-26T08:04:48.899Z,99.60
2017-08-26T08:07:16.435Z,99.40
2017-08-26T08:09:43.982Z,99.30
2017-08-26T08:12:11.507Z,99.90
2017-08-26T08:14:39.056Z,99.90
2017-08-26T08:17:06.598Z,99.60
2017-08-26T08:19:34.291Z,99.60
2017-08-26T08:22:01.815Z,99.90
2017-08-26T08:24:29.359Z,99.80
2017-08-26T08:26:56.874Z,99.20
2017-08-26T08:29:24.431Z,99.90
2017-08-26T08:31:51.969Z,99.90
2017-08-26T08:34:19.530Z,99.70
2017-08-26T08:36:47.059Z,99.90
2017-08-26T08:39:14.612Z,99.90
2017-08-26T08:41:42.144Z,99.30
2017-08-26T08:44:10.459Z,99.00
2017-08-26T08:46:37.992Z,99.00
2017-08-26T08:49:05.536Z,97.50
2017-08-26T08:51:33.082Z,97.80
2017-08-26T08:54:00.628Z,98.70
2017-08-26T08:56:28.180Z,99.50
2017-08-26T08:58:55.776Z,98.40
2017-08-26T09:01:23.325Z,98.30
2017-08-26T09:03:50.841Z,97.90
2017-08-26T09:06:19.169Z,98.20
2017-08-26T09:08:46.691Z,98.20
2017-08-26T09:11:14.240Z,98.40
2017-08-26T09:13:41.771Z,97.90
2017-08-26T09:16:09.315Z,97.30
2017-08-26T09:18:36.950Z,96.20
2017-08-26T09:21:04.499Z,95.10
2017-08-26T09:23:32.035Z,95.00
2017-08-26T09:25:59.581Z,94.30
2017-08-26T09:28:27.114Z,93.30
2017-08-26T09:30:54.716Z,92.00
2017-08-26T09:33:22.248Z,92.10
2017-08-26T09:35:49.804Z,90.70
2017-08-26T09:38:17.338Z,91.40
2017-08-26T09:40:44.893Z,93.30
2017-08-26T09:43:12.433Z,93.80
2017-08-26T09:45:40.006Z,93.60
2017-08-26T09:48:07.540Z,96.70
2017-08-26T09:50:35.072Z,94.90
2017-08-26T09:53:02.623Z,94.80
2017-08-26T09:55:30.151Z,93.90
2017-08-26T09:57:57.698Z,93.80
2017-08-26T10:00:25.228Z,93.40
2017-08-26T10:02:52.790Z,93.40
2017-08-26T10:05:21.082Z,93.30
2017-08-26T10:07:49.405Z,93.00
2017-08-26T10:10:16.935Z,93.00
2017-08-26T10:12:44.488Z,93.10
2017-08-26T10:15:12.019Z,93.60
2017-08-26T10:17:39.581Z,94.30
2017-08-26T10:20:07.102Z,95.00
2017-08-26T10:22:34.659Z,94.20
2017-08-26T10:25:02.187Z,94.60
2017-08-26T10:27:29.738Z,93.80
2017-08-26T10:29:57.278Z,93.30
2017-08-26T10:32:24.835Z,94.70
2017-08-26T10:34:52.368Z,94.40
2017-08-26T10:37:19.924Z,94.30
2017-08-26T10:39:47.456Z,93.40
2017-08-26T10:42:15.012Z,92.80
2017-08-26T10:44:42.544Z,94.10
2017-08-26T10:47:10.095Z,93.90
2017-08-26T10:49:37.628Z,94.20
2017-08-26T10:52:05.192Z,94.40
2017-08-26T10:54:32.730Z,95.40
2017-08-26T10:57:00.272Z,94.80
2017-08-26T10:59:27.813Z,90.90
2017-08-26T11:01:55.378Z,90.10
2017-08-26T11:04:23.683Z,91.70
2017-08-26T11:06:51.205Z,91.70
2017-08-26T11:09:18.752Z,90.20
2017-08-26T11:11:46.279Z,89.00
2017-08-26T11:14:13.925Z,86.70
2017-08-26T11:16:41.447Z,80.80
2017-08-26T11:19:08.995Z,77.10
2017-08-26T11:21:36.537Z,80.50
2017-08-26T11:24:04.082Z,81.40
2017-08-26T11:26:31.607Z,80.80
2017-08-26T11:28:59.151Z,82.90
2017-08-26T11:31:26.673Z,81.60
2017-08-26T11:33:54.228Z,83.90
